sensor_id;sensor_type;location;lat;lon;timestamp;P1;durP1;ratioP1;P2;durP2;ratioP2
63690;SDS011;49837;57.280;27.070;2023-08-08T00:00:51;7.0;;;4.2;;
63690;SDS011;49837;57.280;27.070;2023-08-08T00:01:52;5.7;;;3.8;;
63690;SDS011;49837;57.280;27.070;2023-08-08T00:02:52;5.6;;;3.4;;
63690;SDS011;49837;57.280;27.070;2023-08-08T00:03:52;7.3;;;3.7;;
63690;SDS011;49837;57.280;27.070;2023-08-08T00:04:53;5.3;;;3.5;;
63690;SDS011;49837;57.280;27.070;2023-08-08T00:05:53;5.9;;;3.7;;
63690;SDS011;49837;57.280;27.070;2023-08-08T00:06:53;7.3;;;3.9;;
63690;SDS011;49837;57.280;27.070;2023-08-08T00:07:54;5.2;;;3.8;;
63690;SDS011;49837;57.280;27.070;2023-08-08T00:08:54;11.1;;;3.7;;
63690;SDS011;49837;57.280;27.070;2023-08-08T00:09:55;5.1;;;3.4;;
63690;SDS011;49837;57.280;27.070;2023-08-08T00:10:55;5.6;;;3.6;;
63690;SDS011;49837;57.280;27.070;2023-08-08T00:11:55;4.9;;;3.3;;
63690;SDS011;49837;57.280;27.070;2023-08-08T00:12:56;6.7;;;3.4;;
63690;SDS011;49837;57.280;27.070;2023-08-08T00:13:56;5.5;;;3.6;;
63690;SDS011;49837;57.280;27.070;2023-08-08T00:14:56;4.6;;;3.4;;
63690;SDS011;49837;57.280;27.070;2023-08-08T00:15:57;5.6;;;3.1;;
63690;SDS011;49837;57.280;27.070;2023-08-08T00:16:57;7.4;;;3.3;;
63690;SDS011;49837;57.280;27.070;2023-08-08T00:17:58;4.3;;;3.2;;
63690;SDS011;49837;57.280;27.070;2023-08-08T00:18:58;4.9;;;3.2;;
63690;SDS011;49837;57.280;27.070;2023-08-08T00:19:58;9.7;;;3.7;;
63690;SDS011;49837;57.280;27.070;2023-08-08T00:20:59;5.5;;;3.6;;
63690;SDS011;49837;57.280;27.070;2023-08-08T00:21:59;4.7;;;3.2;;
63690;SDS011;49837;57.280;27.070;2023-08-08T00:22:59;5.6;;;3.4;;
63690;SDS011;49837;57.280;27.070;2023-08-08T00:24:00;6.7;;;3.0;;
63690;SDS011;49837;57.280;27.070;2023-08-08T00:25:00;6.0;;;3.1;;
63690;SDS011;49837;57.280;27.070;2023-08-08T00:26:01;3.7;;;3.1;;
63690;SDS011;49837;57.280;27.070;2023-08-08T00:27:01;4.2;;;2.8;;
63690;SDS011;49837;57.280;27.070;2023-08-08T00:28:02;4.2;;;2.9;;
63690;SDS011;49837;57.280;27.070;2023-08-08T00:29:02;4.3;;;2.8;;
63690;SDS011;49837;57.280;27.070;2023-08-08T00:30:02;5.5;;;2.9;;
63690;SDS011;49837;57.280;27.070;2023-08-08T00:31:03;4.9;;;2.6;;
63690;SDS011;49837;57.280;27.070;2023-08-08T00:32:03;2.9;;;2.4;;
63690;SDS011;49837;57.280;27.070;2023-08-08T00:33:03;3.9;;;2.4;;
63690;SDS011;49837;57.280;27.070;2023-08-08T00:34:04;5.7;;;2.6;;
63690;SDS011;49837;57.280;27.070;2023-08-08T00:35:04;2.7;;;2.3;;
63690;SDS011;49837;57.280;27.070;2023-08-08T00:36:04;3.0;;;2.1;;
63690;SDS011;49837;57.280;27.070;2023-08-08T00:37:05;3.0;;;2.2;;
63690;SDS011;49837;57.280;27.070;2023-08-08T00:38:05;4.5;;;2.2;;
63690;SDS011;49837;57.280;27.070;2023-08-08T00:39:06;3.3;;;1.5;;
63690;SDS011;49837;57.280;27.070;2023-08-08T00:40:06;2.2;;;1.4;;
63690;SDS011;49837;57.280;27.070;2023-08-08T00:41:06;6.7;;;1.4;;
63690;SDS011;49837;57.280;27.070;2023-08-08T00:42:07;1.6;;;0.8;;
63690;SDS011;49837;57.280;27.070;2023-08-08T00:43:07;0.8;;;0.7;;
63690;SDS011;49837;57.280;27.070;2023-08-08T00:44:07;2.0;;;0.7;;
63690;SDS011;49837;57.280;27.070;2023-08-08T00:45:08;2.2;;;0.6;;
63690;SDS011;49837;57.280;27.070;2023-08-08T00:46:08;1.8;;;0.6;;
63690;SDS011;49837;57.280;27.070;2023-08-08T00:47:09;4.6;;;0.8;;
63690;SDS011;49837;57.280;27.070;2023-08-08T00:48:09;3.9;;;0.5;;
63690;SDS011;49837;57.280;27.070;2023-08-08T00:49:10;0.6;;;0.5;;
63690;SDS011;49837;57.280;27.070;2023-08-08T00:50:10;0.4;;;0.3;;
63690;SDS011;49837;57.280;27.070;2023-08-08T00:51:11;2.9;;;0.4;;
63690;SDS011;49837;57.280;27.070;2023-08-08T00:52:12;1.7;;;0.4;;
63690;SDS011;49837;57.280;27.070;2023-08-08T00:53:12;0.7;;;0.4;;
63690;SDS011;49837;57.280;27.070;2023-08-08T00:54:12;1.0;;;0.4;;
63690;SDS011;49837;57.280;27.070;2023-08-08T00:55:13;1.3;;;0.3;;
63690;SDS011;49837;57.280;27.070;2023-08-08T00:56:13;2.1;;;0.3;;
63690;SDS011;49837;57.280;27.070;2023-08-08T00:57:14;1.3;;;0.4;;
63690;SDS011;49837;57.280;27.070;2023-08-08T00:58:14;0.6;;;0.4;;
63690;SDS011;49837;57.280;27.070;2023-08-08T00:59:14;2.6;;;0.4;;
63690;SDS011;49837;57.280;27.070;2023-08-08T01:00:15;0.5;;;0.4;;
63690;SDS011;49837;57.280;27.070;2023-08-08T01:01:16;2.3;;;0.3;;
63690;SDS011;49837;57.280;27.070;2023-08-08T01:02:16;0.5;;;0.2;;
63690;SDS011;49837;57.280;27.070;2023-08-08T01:03:17;0.9;;;0.4;;
63690;SDS011;49837;57.280;27.070;2023-08-08T01:04:17;0.7;;;0.4;;
63690;SDS011;49837;57.280;27.070;2023-08-08T01:05:17;2.6;;;0.3;;
63690;SDS011;49837;57.280;27.070;2023-08-08T01:06:36;5.0;;;0.3;;
63690;SDS011;49837;57.280;27.070;2023-08-08T01:08:26;1.0;;;0.3;;
63690;SDS011;49837;57.280;27.070;2023-08-08T01:10:33;0.3;;;0.3;;
63690;SDS011;49837;57.280;27.070;2023-08-08T01:11:35;1.7;;;0.3;;
63690;SDS011;49837;57.280;27.070;2023-08-08T01:12:38;1.6;;;0.2;;
63690;SDS011;49837;57.280;27.070;2023-08-08T01:13:38;2.2;;;0.3;;
63690;SDS011;49837;57.280;27.070;2023-08-08T01:14:39;2.1;;;0.3;;
63690;SDS011;49837;57.280;27.070;2023-08-08T01:15:39;2.3;;;0.3;;
63690;SDS011;49837;57.280;27.070;2023-08-08T01:16:39;2.1;;;0.3;;
63690;SDS011;49837;57.280;27.070;2023-08-08T01:17:40;1.5;;;0.3;;
63690;SDS011;49837;57.280;27.070;2023-08-08T01:18:40;0.3;;;0.2;;
63690;SDS011;49837;57.280;27.070;2023-08-08T01:19:41;1.9;;;0.2;;
63690;SDS011;49837;57.280;27.070;2023-08-08T01:20:42;0.7;;;0.2;;
63690;SDS011;49837;57.280;27.070;2023-08-08T01:21:42;0.8;;;0.1;;
63690;SDS011;49837;57.280;27.070;2023-08-08T01:22:45;0.3;;;0.1;;
63690;SDS011;49837;57.280;27.070;2023-08-08T01:23:56;2.8;;;0.2;;
63690;SDS011;49837;57.280;27.070;2023-08-08T01:24:52;1.6;;;0.3;;
63690;SDS011;49837;57.280;27.070;2023-08-08T01:25:52;0.8;;;0.1;;
63690;SDS011;49837;57.280;27.070;2023-08-08T01:26:53;2.8;;;0.2;;
63690;SDS011;49837;57.280;27.070;2023-08-08T01:27:53;0.9;;;0.2;;
63690;SDS011;49837;57.280;27.070;2023-08-08T01:28:54;2.0;;;0.2;;
63690;SDS011;49837;57.280;27.070;2023-08-08T01:29:54;0.8;;;0.2;;
63690;SDS011;49837;57.280;27.070;2023-08-08T01:30:54;1.2;;;0.2;;
63690;SDS011;49837;57.280;27.070;2023-08-08T01:31:55;0.9;;;0.2;;
63690;SDS011;49837;57.280;27.070;2023-08-08T01:32:55;0.4;;;0.1;;
63690;SDS011;49837;57.280;27.070;2023-08-08T01:33:56;2.9;;;0.2;;
63690;SDS011;49837;57.280;27.070;2023-08-08T01:34:56;1.5;;;0.2;;
63690;SDS011;49837;57.280;27.070;2023-08-08T01:35:58;0.9;;;0.1;;
63690;SDS011;49837;57.280;27.070;2023-08-08T01:37:02;0.7;;;0.2;;
63690;SDS011;49837;57.280;27.070;2023-08-08T01:38:14;1.8;;;0.2;;
63690;SDS011;49837;57.280;27.070;2023-08-08T01:39:04;0.1;;;0.1;;
63690;SDS011;49837;57.280;27.070;2023-08-08T01:40:05;1.3;;;0.2;;
63690;SDS011;49837;57.280;27.070;2023-08-08T01:41:05;0.7;;;0.1;;
63690;SDS011;49837;57.280;27.070;2023-08-08T01:42:06;0.7;;;0.1;;
63690;SDS011;49837;57.280;27.070;2023-08-08T01:43:06;0.4;;;0.2;;
63690;SDS011;49837;57.280;27.070;2023-08-08T01:44:07;1.6;;;0.2;;
63690;SDS011;49837;57.280;27.070;2023-08-08T01:45:07;0.1;;;0.1;;
63690;SDS011;49837;57.280;27.070;2023-08-08T01:46:08;0.8;;;0.1;;
63690;SDS011;49837;57.280;27.070;2023-08-08T01:47:08;0.4;;;0.3;;
63690;SDS011;49837;57.280;27.070;2023-08-08T01:48:09;1.2;;;0.2;;
63690;SDS011;49837;57.280;27.070;2023-08-08T01:49:09;1.7;;;0.2;;
63690;SDS011;49837;57.280;27.070;2023-08-08T01:50:09;1.3;;;0.2;;
63690;SDS011;49837;57.280;27.070;2023-08-08T01:51:10;0.4;;;0.2;;
63690;SDS011;49837;57.280;27.070;2023-08-08T01:52:10;2.1;;;0.2;;
63690;SDS011;49837;57.280;27.070;2023-08-08T01:53:11;4.4;;;0.6;;
63690;SDS011;49837;57.280;27.070;2023-08-08T01:54:11;1.0;;;0.1;;
63690;SDS011;49837;57.280;27.070;2023-08-08T01:55:12;0.5;;;0.3;;
63690;SDS011;49837;57.280;27.070;2023-08-08T01:56:12;0.3;;;0.3;;
63690;SDS011;49837;57.280;27.070;2023-08-08T01:57:13;1.2;;;0.2;;
63690;SDS011;49837;57.280;27.070;2023-08-08T01:58:13;2.4;;;0.4;;
63690;SDS011;49837;57.280;27.070;2023-08-08T01:59:14;0.5;;;0.2;;
63690;SDS011;49837;57.280;27.070;2023-08-08T02:00:14;2.1;;;0.3;;
63690;SDS011;49837;57.280;27.070;2023-08-08T02:01:14;1.1;;;0.2;;
63690;SDS011;49837;57.280;27.070;2023-08-08T02:02:15;0.9;;;0.3;;
63690;SDS011;49837;57.280;27.070;2023-08-08T02:03:15;1.0;;;0.3;;
63690;SDS011;49837;57.280;27.070;2023-08-08T02:04:16;0.5;;;0.3;;
63690;SDS011;49837;57.280;27.070;2023-08-08T02:05:16;0.4;;;0.4;;
63690;SDS011;49837;57.280;27.070;2023-08-08T02:06:17;1.2;;;0.2;;
63690;SDS011;49837;57.280;27.070;2023-08-08T02:07:17;0.8;;;0.5;;
63690;SDS011;49837;57.280;27.070;2023-08-08T02:08:18;1.3;;;0.4;;
63690;SDS011;49837;57.280;27.070;2023-08-08T02:09:18;2.6;;;0.5;;
63690;SDS011;49837;57.280;27.070;2023-08-08T02:10:19;1.5;;;0.5;;
63690;SDS011;49837;57.280;27.070;2023-08-08T02:11:19;2.5;;;0.4;;
63690;SDS011;49837;57.280;27.070;2023-08-08T02:12:19;3.9;;;0.5;;
63690;SDS011;49837;57.280;27.070;2023-08-08T02:13:20;1.0;;;0.3;;
63690;SDS011;49837;57.280;27.070;2023-08-08T02:14:20;0.9;;;0.4;;
63690;SDS011;49837;57.280;27.070;2023-08-08T02:15:21;0.7;;;0.4;;
63690;SDS011;49837;57.280;27.070;2023-08-08T02:16:21;0.4;;;0.3;;
63690;SDS011;49837;57.280;27.070;2023-08-08T02:17:22;1.0;;;0.4;;
63690;SDS011;49837;57.280;27.070;2023-08-08T02:18:22;0.4;;;0.3;;
63690;SDS011;49837;57.280;27.070;2023-08-08T02:19:23;2.6;;;0.5;;
63690;SDS011;49837;57.280;27.070;2023-08-08T02:20:23;0.3;;;0.3;;
63690;SDS011;49837;57.280;27.070;2023-08-08T02:21:23;1.3;;;0.5;;
63690;SDS011;49837;57.280;27.070;2023-08-08T02:22:24;0.5;;;0.3;;
63690;SDS011;49837;57.280;27.070;2023-08-08T02:23:24;3.3;;;0.4;;
63690;SDS011;49837;57.280;27.070;2023-08-08T02:24:25;1.3;;;0.2;;
63690;SDS011;49837;57.280;27.070;2023-08-08T02:25:25;0.4;;;0.4;;
63690;SDS011;49837;57.280;27.070;2023-08-08T02:26:26;1.4;;;0.5;;
63690;SDS011;49837;57.280;27.070;2023-08-08T02:27:26;1.2;;;0.3;;
63690;SDS011;49837;57.280;27.070;2023-08-08T02:28:27;0.9;;;0.3;;
63690;SDS011;49837;57.280;27.070;2023-08-08T02:29:27;0.6;;;0.4;;
63690;SDS011;49837;57.280;27.070;2023-08-08T02:30:28;1.3;;;0.4;;
63690;SDS011;49837;57.280;27.070;2023-08-08T02:31:28;1.1;;;0.4;;
63690;SDS011;49837;57.280;27.070;2023-08-08T02:32:29;1.4;;;0.3;;
63690;SDS011;49837;57.280;27.070;2023-08-08T02:33:29;1.3;;;0.4;;
63690;SDS011;49837;57.280;27.070;2023-08-08T02:34:29;0.7;;;0.4;;
63690;SDS011;49837;57.280;27.070;2023-08-08T02:35:30;1.7;;;0.5;;
63690;SDS011;49837;57.280;27.070;2023-08-08T02:36:30;1.5;;;0.5;;
63690;SDS011;49837;57.280;27.070;2023-08-08T02:37:31;1.9;;;0.4;;
63690;SDS011;49837;57.280;27.070;2023-08-08T02:38:31;1.2;;;0.4;;
63690;SDS011;49837;57.280;27.070;2023-08-08T02:39:32;1.1;;;0.4;;
63690;SDS011;49837;57.280;27.070;2023-08-08T02:40:32;1.5;;;0.4;;
63690;SDS011;49837;57.280;27.070;2023-08-08T02:41:33;2.1;;;0.5;;
63690;SDS011;49837;57.280;27.070;2023-08-08T02:42:33;2.0;;;0.5;;
63690;SDS011;49837;57.280;27.070;2023-08-08T02:43:34;1.1;;;0.5;;
63690;SDS011;49837;57.280;27.070;2023-08-08T02:44:34;0.4;;;0.3;;
63690;SDS011;49837;57.280;27.070;2023-08-08T02:45:34;2.2;;;0.4;;
63690;SDS011;49837;57.280;27.070;2023-08-08T02:46:35;0.8;;;0.3;;
63690;SDS011;49837;57.280;27.070;2023-08-08T02:47:35;1.9;;;0.5;;
63690;SDS011;49837;57.280;27.070;2023-08-08T02:48:36;1.0;;;0.4;;
63690;SDS011;49837;57.280;27.070;2023-08-08T02:49:36;2.9;;;0.5;;
63690;SDS011;49837;57.280;27.070;2023-08-08T02:50:37;0.3;;;0.3;;
63690;SDS011;49837;57.280;27.070;2023-08-08T02:51:37;0.4;;;0.4;;
63690;SDS011;49837;57.280;27.070;2023-08-08T02:52:38;0.3;;;0.2;;
63690;SDS011;49837;57.280;27.070;2023-08-08T02:53:38;4.4;;;0.3;;
63690;SDS011;49837;57.280;27.070;2023-08-08T02:54:38;1.0;;;0.4;;
63690;SDS011;49837;57.280;27.070;2023-08-08T02:55:39;1.6;;;0.4;;
63690;SDS011;49837;57.280;27.070;2023-08-08T02:56:39;1.4;;;0.4;;
63690;SDS011;49837;57.280;27.070;2023-08-08T02:57:40;0.4;;;0.3;;
63690;SDS011;49837;57.280;27.070;2023-08-08T02:58:40;0.6;;;0.4;;
63690;SDS011;49837;57.280;27.070;2023-08-08T02:59:41;2.7;;;0.4;;
63690;SDS011;49837;57.280;27.070;2023-08-08T03:00:41;0.3;;;0.3;;
63690;SDS011;49837;57.280;27.070;2023-08-08T03:01:42;1.2;;;0.3;;
63690;SDS011;49837;57.280;27.070;2023-08-08T03:02:42;0.9;;;0.3;;
63690;SDS011;49837;57.280;27.070;2023-08-08T03:03:43;1.3;;;0.4;;
63690;SDS011;49837;57.280;27.070;2023-08-08T03:04:43;0.5;;;0.3;;
63690;SDS011;49837;57.280;27.070;2023-08-08T03:05:44;1.3;;;0.5;;
63690;SDS011;49837;57.280;27.070;2023-08-08T03:06:44;0.8;;;0.3;;
63690;SDS011;49837;57.280;27.070;2023-08-08T03:07:44;0.2;;;0.2;;
63690;SDS011;49837;57.280;27.070;2023-08-08T03:08:45;1.9;;;0.3;;
63690;SDS011;49837;57.280;27.070;2023-08-08T03:09:45;1.5;;;0.2;;
63690;SDS011;49837;57.280;27.070;2023-08-08T03:10:46;0.3;;;0.3;;
63690;SDS011;49837;57.280;27.070;2023-08-08T03:11:46;1.0;;;0.3;;
63690;SDS011;49837;57.280;27.070;2023-08-08T03:12:47;1.0;;;0.4;;
63690;SDS011;49837;57.280;27.070;2023-08-08T03:13:47;1.5;;;0.4;;
63690;SDS011;49837;57.280;27.070;2023-08-08T03:14:48;2.0;;;0.4;;
63690;SDS011;49837;57.280;27.070;2023-08-08T03:15:48;0.5;;;0.5;;
63690;SDS011;49837;57.280;27.070;2023-08-08T03:16:48;0.2;;;0.2;;
63690;SDS011;49837;57.280;27.070;2023-08-08T03:17:49;1.7;;;0.5;;
63690;SDS011;49837;57.280;27.070;2023-08-08T03:18:49;0.6;;;0.4;;
63690;SDS011;49837;57.280;27.070;2023-08-08T03:19:50;0.8;;;0.5;;
63690;SDS011;49837;57.280;27.070;2023-08-08T03:20:50;0.5;;;0.5;;
63690;SDS011;49837;57.280;27.070;2023-08-08T03:21:51;0.2;;;0.2;;
63690;SDS011;49837;57.280;27.070;2023-08-08T03:22:51;2.7;;;0.4;;
63690;SDS011;49837;57.280;27.070;2023-08-08T03:23:52;2.0;;;0.5;;
63690;SDS011;49837;57.280;27.070;2023-08-08T03:24:52;3.8;;;0.4;;
63690;SDS011;49837;57.280;27.070;2023-08-08T03:25:52;1.1;;;0.3;;
63690;SDS011;49837;57.280;27.070;2023-08-08T03:26:53;0.5;;;0.3;;
63690;SDS011;49837;57.280;27.070;2023-08-08T03:27:53;2.2;;;0.3;;
63690;SDS011;49837;57.280;27.070;2023-08-08T03:28:54;0.6;;;0.3;;
63690;SDS011;49837;57.280;27.070;2023-08-08T03:29:54;0.5;;;0.4;;
63690;SDS011;49837;57.280;27.070;2023-08-08T03:30:55;0.3;;;0.3;;
63690;SDS011;49837;57.280;27.070;2023-08-08T03:31:55;0.3;;;0.3;;
63690;SDS011;49837;57.280;27.070;2023-08-08T03:32:56;0.4;;;0.3;;
63690;SDS011;49837;57.280;27.070;2023-08-08T03:33:56;0.2;;;0.2;;
63690;SDS011;49837;57.280;27.070;2023-08-08T03:34:57;0.4;;;0.4;;
63690;SDS011;49837;57.280;27.070;2023-08-08T03:35:57;0.9;;;0.3;;
63690;SDS011;49837;57.280;27.070;2023-08-08T03:36:58;0.7;;;0.3;;
63690;SDS011;49837;57.280;27.070;2023-08-08T03:37:58;0.6;;;0.2;;
63690;SDS011;49837;57.280;27.070;2023-08-08T03:38:58;1.1;;;0.4;;
63690;SDS011;49837;57.280;27.070;2023-08-08T03:39:59;0.2;;;0.2;;
63690;SDS011;49837;57.280;27.070;2023-08-08T03:40:59;0.3;;;0.2;;
63690;SDS011;49837;57.280;27.070;2023-08-08T03:42:00;0.6;;;0.4;;
63690;SDS011;49837;57.280;27.070;2023-08-08T03:43:00;0.6;;;0.3;;
63690;SDS011;49837;57.280;27.070;2023-08-08T03:44:01;0.4;;;0.4;;
63690;SDS011;49837;57.280;27.070;2023-08-08T03:45:01;0.3;;;0.3;;
63690;SDS011;49837;57.280;27.070;2023-08-08T03:46:02;1.2;;;0.4;;
63690;SDS011;49837;57.280;27.070;2023-08-08T03:47:02;0.4;;;0.2;;
63690;SDS011;49837;57.280;27.070;2023-08-08T03:48:05;0.4;;;0.4;;
63690;SDS011;49837;57.280;27.070;2023-08-08T03:49:06;1.4;;;0.3;;
63690;SDS011;49837;57.280;27.070;2023-08-08T03:50:06;0.9;;;0.3;;
63690;SDS011;49837;57.280;27.070;2023-08-08T03:51:06;0.5;;;0.4;;
63690;SDS011;49837;57.280;27.070;2023-08-08T03:52:07;1.4;;;0.3;;
63690;SDS011;49837;57.280;27.070;2023-08-08T03:53:07;1.7;;;0.5;;
63690;SDS011;49837;57.280;27.070;2023-08-08T03:54:09;0.5;;;0.4;;
63690;SDS011;49837;57.280;27.070;2023-08-08T03:55:08;0.6;;;0.4;;
63690;SDS011;49837;57.280;27.070;2023-08-08T03:56:09;2.2;;;0.4;;
63690;SDS011;49837;57.280;27.070;2023-08-08T03:57:09;0.9;;;0.4;;
63690;SDS011;49837;57.280;27.070;2023-08-08T03:58:10;0.3;;;0.3;;
63690;SDS011;49837;57.280;27.070;2023-08-08T03:59:10;0.5;;;0.5;;
63690;SDS011;49837;57.280;27.070;2023-08-08T04:00:11;0.3;;;0.3;;
63690;SDS011;49837;57.280;27.070;2023-08-08T04:01:11;0.3;;;0.3;;
63690;SDS011;49837;57.280;27.070;2023-08-08T04:02:11;1.2;;;0.3;;
63690;SDS011;49837;57.280;27.070;2023-08-08T04:03:13;0.8;;;0.5;;
63690;SDS011;49837;57.280;27.070;2023-08-08T04:04:12;0.4;;;0.4;;
63690;SDS011;49837;57.280;27.070;2023-08-08T04:05:13;0.5;;;0.4;;
63690;SDS011;49837;57.280;27.070;2023-08-08T04:06:13;0.6;;;0.5;;
63690;SDS011;49837;57.280;27.070;2023-08-08T04:07:14;0.5;;;0.5;;
63690;SDS011;49837;57.280;27.070;2023-08-08T04:08:14;0.3;;;0.3;;
63690;SDS011;49837;57.280;27.070;2023-08-08T04:09:15;1.0;;;0.5;;
63690;SDS011;49837;57.280;27.070;2023-08-08T04:10:15;0.7;;;0.4;;
63690;SDS011;49837;57.280;27.070;2023-08-08T04:11:16;1.2;;;0.5;;
63690;SDS011;49837;57.280;27.070;2023-08-08T04:12:16;0.6;;;0.3;;
63690;SDS011;49837;57.280;27.070;2023-08-08T04:13:16;0.5;;;0.4;;
63690;SDS011;49837;57.280;27.070;2023-08-08T04:14:17;0.8;;;0.5;;
63690;SDS011;49837;57.280;27.070;2023-08-08T04:15:17;0.3;;;0.3;;
63690;SDS011;49837;57.280;27.070;2023-08-08T04:16:18;0.7;;;0.5;;
63690;SDS011;49837;57.280;27.070;2023-08-08T04:17:18;1.0;;;0.4;;
63690;SDS011;49837;57.280;27.070;2023-08-08T04:18:19;0.5;;;0.4;;
63690;SDS011;49837;57.280;27.070;2023-08-08T04:19:19;0.5;;;0.5;;
63690;SDS011;49837;57.280;27.070;2023-08-08T04:20:20;0.4;;;0.4;;
63690;SDS011;49837;57.280;27.070;2023-08-08T04:21:20;0.6;;;0.5;;
63690;SDS011;49837;57.280;27.070;2023-08-08T04:22:21;0.7;;;0.7;;
63690;SDS011;49837;57.280;27.070;2023-08-08T04:23:21;3.9;;;1.4;;
63690;SDS011;49837;57.280;27.070;2023-08-08T04:24:21;2.2;;;0.9;;
63690;SDS011;49837;57.280;27.070;2023-08-08T04:25:22;0.6;;;0.6;;
63690;SDS011;49837;57.280;27.070;2023-08-08T04:26:22;0.4;;;0.4;;
63690;SDS011;49837;57.280;27.070;2023-08-08T04:27:23;1.2;;;0.5;;
63690;SDS011;49837;57.280;27.070;2023-08-08T04:28:23;1.6;;;0.6;;
63690;SDS011;49837;57.280;27.070;2023-08-08T04:29:24;0.7;;;0.6;;
63690;SDS011;49837;57.280;27.070;2023-08-08T04:30:24;1.0;;;0.5;;
63690;SDS011;49837;57.280;27.070;2023-08-08T04:31:25;0.4;;;0.4;;
63690;SDS011;49837;57.280;27.070;2023-08-08T04:32:25;1.6;;;0.5;;
63690;SDS011;49837;57.280;27.070;2023-08-08T04:33:26;1.2;;;0.5;;
63690;SDS011;49837;57.280;27.070;2023-08-08T04:34:26;0.9;;;0.8;;
63690;SDS011;49837;57.280;27.070;2023-08-08T04:35:27;0.5;;;0.4;;
63690;SDS011;49837;57.280;27.070;2023-08-08T04:36:27;0.6;;;0.5;;
63690;SDS011;49837;57.280;27.070;2023-08-08T04:37:27;0.7;;;0.5;;
63690;SDS011;49837;57.280;27.070;2023-08-08T04:38:28;0.4;;;0.4;;
63690;SDS011;49837;57.280;27.070;2023-08-08T04:39:28;1.0;;;0.5;;
63690;SDS011;49837;57.280;27.070;2023-08-08T04:40:29;1.4;;;0.6;;
63690;SDS011;49837;57.280;27.070;2023-08-08T04:41:29;0.5;;;0.5;;
63690;SDS011;49837;57.280;27.070;2023-08-08T04:42:30;0.7;;;0.6;;
63690;SDS011;49837;57.280;27.070;2023-08-08T04:43:30;0.7;;;0.5;;
63690;SDS011;49837;57.280;27.070;2023-08-08T04:44:31;1.8;;;0.5;;
63690;SDS011;49837;57.280;27.070;2023-08-08T04:45:31;0.7;;;0.5;;
63690;SDS011;49837;57.280;27.070;2023-08-08T04:46:32;0.4;;;0.4;;
63690;SDS011;49837;57.280;27.070;2023-08-08T04:47:32;2.6;;;0.5;;
63690;SDS011;49837;57.280;27.070;2023-08-08T04:48:32;0.6;;;0.5;;
63690;SDS011;49837;57.280;27.070;2023-08-08T04:49:33;0.6;;;0.4;;
63690;SDS011;49837;57.280;27.070;2023-08-08T04:50:33;1.7;;;0.5;;
63690;SDS011;49837;57.280;27.070;2023-08-08T04:51:34;0.4;;;0.4;;
63690;SDS011;49837;57.280;27.070;2023-08-08T04:52:34;0.3;;;0.3;;
63690;SDS011;49837;57.280;27.070;2023-08-08T04:53:35;0.7;;;0.5;;
63690;SDS011;49837;57.280;27.070;2023-08-08T04:54:36;0.4;;;0.4;;
63690;SDS011;49837;57.280;27.070;2023-08-08T04:55:36;0.8;;;0.4;;
63690;SDS011;49837;57.280;27.070;2023-08-08T04:56:36;4.8;;;0.9;;
63690;SDS011;49837;57.280;27.070;2023-08-08T04:57:36;0.9;;;0.4;;
63690;SDS011;49837;57.280;27.070;2023-08-08T04:58:37;0.6;;;0.4;;
63690;SDS011;49837;57.280;27.070;2023-08-08T04:59:37;1.8;;;0.5;;
63690;SDS011;49837;57.280;27.070;2023-08-08T05:00:38;1.3;;;0.4;;
63690;SDS011;49837;57.280;27.070;2023-08-08T05:01:38;1.5;;;0.6;;
63690;SDS011;49837;57.280;27.070;2023-08-08T05:02:39;0.9;;;0.4;;
63690;SDS011;49837;57.280;27.070;2023-08-08T05:03:39;0.9;;;0.6;;
63690;SDS011;49837;57.280;27.070;2023-08-08T05:04:40;1.1;;;0.5;;
63690;SDS011;49837;57.280;27.070;2023-08-08T05:05:40;1.5;;;0.6;;
63690;SDS011;49837;57.280;27.070;2023-08-08T05:06:41;0.8;;;0.6;;
63690;SDS011;49837;57.280;27.070;2023-08-08T05:07:41;4.9;;;0.7;;
63690;SDS011;49837;57.280;27.070;2023-08-08T05:08:42;0.9;;;0.5;;
63690;SDS011;49837;57.280;27.070;2023-08-08T05:09:42;0.7;;;0.5;;
63690;SDS011;49837;57.280;27.070;2023-08-08T05:10:42;2.1;;;0.5;;
63690;SDS011;49837;57.280;27.070;2023-08-08T05:11:43;0.9;;;0.6;;
63690;SDS011;49837;57.280;27.070;2023-08-08T05:12:43;2.5;;;0.8;;
63690;SDS011;49837;57.280;27.070;2023-08-08T05:13:44;1.7;;;0.7;;
63690;SDS011;49837;57.280;27.070;2023-08-08T05:14:44;0.9;;;0.8;;
63690;SDS011;49837;57.280;27.070;2023-08-08T05:15:45;1.5;;;0.7;;
63690;SDS011;49837;57.280;27.070;2023-08-08T05:16:45;2.4;;;0.8;;
63690;SDS011;49837;57.280;27.070;2023-08-08T05:17:46;1.7;;;1.0;;
63690;SDS011;49837;57.280;27.070;2023-08-08T05:18:46;1.8;;;1.0;;
63690;SDS011;49837;57.280;27.070;2023-08-08T05:19:46;2.2;;;0.8;;
63690;SDS011;49837;57.280;27.070;2023-08-08T05:20:47;1.4;;;0.9;;
63690;SDS011;49837;57.280;27.070;2023-08-08T05:21:47;1.4;;;0.9;;
63690;SDS011;49837;57.280;27.070;2023-08-08T05:22:48;2.4;;;1.0;;
63690;SDS011;49837;57.280;27.070;2023-08-08T05:23:48;2.3;;;1.0;;
63690;SDS011;49837;57.280;27.070;2023-08-08T05:24:49;3.8;;;1.0;;
63690;SDS011;49837;57.280;27.070;2023-08-08T05:25:49;3.0;;;1.1;;
63690;SDS011;49837;57.280;27.070;2023-08-08T05:26:50;2.5;;;1.1;;
63690;SDS011;49837;57.280;27.070;2023-08-08T05:27:50;2.6;;;1.1;;
63690;SDS011;49837;57.280;27.070;2023-08-08T05:28:51;2.0;;;1.1;;
63690;SDS011;49837;57.280;27.070;2023-08-08T05:29:51;3.2;;;1.2;;
63690;SDS011;49837;57.280;27.070;2023-08-08T05:30:52;2.0;;;1.2;;
63690;SDS011;49837;57.280;27.070;2023-08-08T05:31:52;3.0;;;1.3;;
63690;SDS011;49837;57.280;27.070;2023-08-08T05:32:53;2.3;;;1.1;;
63690;SDS011;49837;57.280;27.070;2023-08-08T05:33:53;2.7;;;1.2;;
63690;SDS011;49837;57.280;27.070;2023-08-08T05:34:53;2.8;;;1.2;;
63690;SDS011;49837;57.280;27.070;2023-08-08T05:35:54;3.2;;;1.2;;
63690;SDS011;49837;57.280;27.070;2023-08-08T05:36:54;1.8;;;1.2;;
63690;SDS011;49837;57.280;27.070;2023-08-08T05:37:57;4.3;;;1.3;;
63690;SDS011;49837;57.280;27.070;2023-08-08T05:38:57;2.6;;;1.1;;
63690;SDS011;49837;57.280;27.070;2023-08-08T05:39:58;3.6;;;1.4;;
63690;SDS011;49837;57.280;27.070;2023-08-08T05:40:58;3.6;;;1.3;;
63690;SDS011;49837;57.280;27.070;2023-08-08T05:41:58;1.9;;;1.1;;
63690;SDS011;49837;57.280;27.070;2023-08-08T05:42:59;1.7;;;1.1;;
63690;SDS011;49837;57.280;27.070;2023-08-08T05:43:59;3.7;;;1.3;;
63690;SDS011;49837;57.280;27.070;2023-08-08T05:45:00;3.9;;;1.3;;
63690;SDS011;49837;57.280;27.070;2023-08-08T05:46:00;2.6;;;1.2;;
63690;SDS011;49837;57.280;27.070;2023-08-08T05:47:01;3.1;;;1.2;;
63690;SDS011;49837;57.280;27.070;2023-08-08T05:48:01;3.2;;;1.3;;
63690;SDS011;49837;57.280;27.070;2023-08-08T05:49:02;3.9;;;1.4;;
63690;SDS011;49837;57.280;27.070;2023-08-08T05:50:02;3.6;;;1.4;;
63690;SDS011;49837;57.280;27.070;2023-08-08T05:51:03;2.9;;;1.5;;
63690;SDS011;49837;57.280;27.070;2023-08-08T05:52:03;2.8;;;1.2;;
63690;SDS011;49837;57.280;27.070;2023-08-08T05:53:03;3.0;;;1.3;;
63690;SDS011;49837;57.280;27.070;2023-08-08T05:54:04;2.4;;;1.4;;
63690;SDS011;49837;57.280;27.070;2023-08-08T05:55:05;2.7;;;1.4;;
63690;SDS011;49837;57.280;27.070;2023-08-08T05:56:05;3.9;;;1.5;;
63690;SDS011;49837;57.280;27.070;2023-08-08T05:57:06;2.6;;;1.3;;
63690;SDS011;49837;57.280;27.070;2023-08-08T05:58:06;6.9;;;1.5;;
63690;SDS011;49837;57.280;27.070;2023-08-08T05:59:06;3.0;;;1.3;;
63690;SDS011;49837;57.280;27.070;2023-08-08T06:00:07;3.8;;;1.6;;
63690;SDS011;49837;57.280;27.070;2023-08-08T06:01:07;5.3;;;1.6;;
63690;SDS011;49837;57.280;27.070;2023-08-08T06:02:08;3.5;;;1.5;;
63690;SDS011;49837;57.280;27.070;2023-08-08T06:03:08;2.8;;;1.6;;
63690;SDS011;49837;57.280;27.070;2023-08-08T06:04:09;2.2;;;1.4;;
63690;SDS011;49837;57.280;27.070;2023-08-08T06:05:10;7.4;;;1.7;;
63690;SDS011;49837;57.280;27.070;2023-08-08T06:06:10;5.2;;;1.7;;
63690;SDS011;49837;57.280;27.070;2023-08-08T06:07:10;6.9;;;1.6;;
63690;SDS011;49837;57.280;27.070;2023-08-08T06:08:10;4.3;;;1.6;;
63690;SDS011;49837;57.280;27.070;2023-08-08T06:09:11;2.9;;;1.5;;
63690;SDS011;49837;57.280;27.070;2023-08-08T06:10:11;4.1;;;1.5;;
63690;SDS011;49837;57.280;27.070;2023-08-08T06:11:12;3.0;;;1.3;;
63690;SDS011;49837;57.280;27.070;2023-08-08T06:12:12;3.0;;;1.3;;